sensor_id;sensor_type;location;lat;lon;timestamp;P1;durP1;ratioP1;P2;durP2;ratioP2
75603;SDS011;64187;51.010;13.792;2023-12-07T00:02:13;9.80;;;6.25;;
75603;SDS011;64187;51.010;13.792;2023-12-07T00:07:12;12.73;;;6.47;;
75603;SDS011;64187;51.010;13.792;2023-12-07T00:12:11;11.45;;;6.95;;
75603;SDS011;64187;51.010;13.792;2023-12-07T00:17:10;11.02;;;6.50;;
75603;SDS011;64187;51.010;13.792;2023-12-07T00:22:09;12.15;;;7.63;;
75603;SDS011;64187;51.010;13.792;2023-12-07T00:27:08;12.15;;;6.57;;
75603;SDS011;64187;51.010;13.792;2023-12-07T00:32:07;10.23;;;6.57;;
75603;SDS011;64187;51.010;13.792;2023-12-07T00:37:06;10.32;;;6.75;;
75603;SDS011;64187;51.010;13.792;2023-12-07T00:42:05;12.57;;;7.45;;
75603;SDS011;64187;51.010;13.792;2023-12-07T00:47:04;11.50;;;7.22;;
75603;SDS011;64187;51.010;13.792;2023-12-07T00:52:03;13.52;;;6.75;;
75603;SDS011;64187;51.010;13.792;2023-12-07T00:57:02;12.18;;;6.75;;
75603;SDS011;64187;51.010;13.792;2023-12-07T01:02:01;11.27;;;7.38;;
75603;SDS011;64187;51.010;13.792;2023-12-07T01:07:03;10.45;;;6.78;;
75603;SDS011;64187;51.010;13.792;2023-12-07T01:12:02;11.75;;;6.43;;
75603;SDS011;64187;51.010;13.792;2023-12-07T01:17:02;12.82;;;7.40;;
75603;SDS011;64187;51.010;13.792;2023-12-07T01:22:00;11.43;;;6.53;;
75603;SDS011;64187;51.010;13.792;2023-12-07T01:26:59;11.27;;;7.50;;
75603;SDS011;64187;51.010;13.792;2023-12-07T01:31:58;11.68;;;7.00;;
75603;SDS011;64187;51.010;13.792;2023-12-07T01:36:57;12.38;;;6.40;;
75603;SDS011;64187;51.010;13.792;2023-12-07T01:41:56;14.70;;;7.78;;
75603;SDS011;64187;51.010;13.792;2023-12-07T01:46:55;10.70;;;6.70;;
75603;SDS011;64187;51.010;13.792;2023-12-07T01:51:54;10.90;;;7.20;;
75603;SDS011;64187;51.010;13.792;2023-12-07T01:56:54;12.93;;;7.32;;
75603;SDS011;64187;51.010;13.792;2023-12-07T02:01:54;11.25;;;6.95;;
75603;SDS011;64187;51.010;13.792;2023-12-07T02:06:53;14.02;;;8.02;;
75603;SDS011;64187;51.010;13.792;2023-12-07T02:11:55;13.95;;;7.47;;
75603;SDS011;64187;51.010;13.792;2023-12-07T02:17:08;14.43;;;7.85;;
75603;SDS011;64187;51.010;13.792;2023-12-07T02:22:18;14.45;;;7.93;;
75603;SDS011;64187;51.010;13.792;2023-12-07T02:27:34;14.77;;;7.60;;
75603;SDS011;64187;51.010;13.792;2023-12-07T02:32:41;12.45;;;6.80;;
75603;SDS011;64187;51.010;13.792;2023-12-07T02:37:44;15.20;;;7.80;;
75603;SDS011;64187;51.010;13.792;2023-12-07T02:42:51;11.82;;;7.22;;
75603;SDS011;64187;51.010;13.792;2023-12-07T02:47:51;10.48;;;6.70;;
75603;SDS011;64187;51.010;13.792;2023-12-07T02:52:50;12.68;;;8.02;;
75603;SDS011;64187;51.010;13.792;2023-12-07T02:57:50;12.60;;;7.50;;
75603;SDS011;64187;51.010;13.792;2023-12-07T03:02:49;12.90;;;7.03;;
75603;SDS011;64187;51.010;13.792;2023-12-07T03:07:49;11.50;;;7.10;;
75603;SDS011;64187;51.010;13.792;2023-12-07T03:12:48;14.25;;;7.70;;
75603;SDS011;64187;51.010;13.792;2023-12-07T03:17:46;13.05;;;7.28;;
75603;SDS011;64187;51.010;13.792;2023-12-07T03:22:45;12.75;;;7.13;;
75603;SDS011;64187;51.010;13.792;2023-12-07T03:27:44;12.20;;;7.40;;
75603;SDS011;64187;51.010;13.792;2023-12-07T03:32:43;13.40;;;7.70;;
75603;SDS011;64187;51.010;13.792;2023-12-07T03:37:42;13.57;;;7.93;;
75603;SDS011;64187;51.010;13.792;2023-12-07T03:42:41;16.45;;;9.00;;
75603;SDS011;64187;51.010;13.792;2023-12-07T03:47:53;15.05;;;8.88;;
75603;SDS011;64187;51.010;13.792;2023-12-07T03:52:52;18.13;;;9.75;;
75603;SDS011;64187;51.010;13.792;2023-12-07T03:57:51;14.45;;;8.88;;
75603;SDS011;64187;51.010;13.792;2023-12-07T04:02:50;18.98;;;9.65;;
75603;SDS011;64187;51.010;13.792;2023-12-07T04:07:49;17.00;;;9.77;;
75603;SDS011;64187;51.010;13.792;2023-12-07T04:12:48;15.10;;;8.77;;
75603;SDS011;64187;51.010;13.792;2023-12-07T04:17:47;16.05;;;8.20;;
75603;SDS011;64187;51.010;13.792;2023-12-07T04:22:46;15.15;;;7.97;;
75603;SDS011;64187;51.010;13.792;2023-12-07T04:27:45;16.52;;;7.53;;
75603;SDS011;64187;51.010;13.792;2023-12-07T04:32:44;14.80;;;8.80;;
75603;SDS011;64187;51.010;13.792;2023-12-07T04:37:42;13.40;;;7.65;;
75603;SDS011;64187;51.010;13.792;2023-12-07T04:42:41;14.85;;;8.27;;
75603;SDS011;64187;51.010;13.792;2023-12-07T04:47:40;13.60;;;7.75;;
75603;SDS011;64187;51.010;13.792;2023-12-07T04:52:39;17.95;;;8.60;;
75603;SDS011;64187;51.010;13.792;2023-12-07T04:57:38;19.63;;;9.15;;
75603;SDS011;64187;51.010;13.792;2023-12-07T05:02:37;15.68;;;9.05;;
75603;SDS011;64187;51.010;13.792;2023-12-07T05:07:36;14.27;;;7.55;;
75603;SDS011;64187;51.010;13.792;2023-12-07T05:12:36;16.83;;;8.30;;
75603;SDS011;64187;51.010;13.792;2023-12-07T05:17:34;16.02;;;7.97;;
75603;SDS011;64187;51.010;13.792;2023-12-07T05:22:33;15.75;;;8.63;;
75603;SDS011;64187;51.010;13.792;2023-12-07T05:27:33;21.42;;;10.70;;
75603;SDS011;64187;51.010;13.792;2023-12-07T05:32:31;14.10;;;7.35;;
75603;SDS011;64187;51.010;13.792;2023-12-07T05:37:31;13.38;;;7.40;;
75603;SDS011;64187;51.010;13.792;2023-12-07T05:42:30;12.50;;;7.43;;
75603;SDS011;64187;51.010;13.792;2023-12-07T05:47:29;13.55;;;8.40;;
75603;SDS011;64187;51.010;13.792;2023-12-07T05:52:27;16.30;;;9.07;;
75603;SDS011;64187;51.010;13.792;2023-12-07T05:57:26;12.25;;;8.30;;
75603;SDS011;64187;51.010;13.792;2023-12-07T06:02:25;16.70;;;8.48;;
75603;SDS011;64187;51.010;13.792;2023-12-07T06:07:25;18.80;;;9.45;;
75603;SDS011;64187;51.010;13.792;2023-12-07T06:12:24;18.55;;;10.20;;
75603;SDS011;64187;51.010;13.792;2023-12-07T06:17:25;17.25;;;9.27;;
75603;SDS011;64187;51.010;13.792;2023-12-07T06:22:25;17.58;;;8.85;;
75603;SDS011;64187;51.010;13.792;2023-12-07T06:27:25;18.80;;;9.15;;
75603;SDS011;64187;51.010;13.792;2023-12-07T06:32:24;16.67;;;9.18;;
75603;SDS011;64187;51.010;13.792;2023-12-07T06:37:23;17.23;;;9.27;;
75603;SDS011;64187;51.010;13.792;2023-12-07T06:42:22;17.50;;;10.02;;
75603;SDS011;64187;51.010;13.792;2023-12-07T06:47:21;14.93;;;9.27;;
75603;SDS011;64187;51.010;13.792;2023-12-07T06:52:20;16.90;;;10.35;;
75603;SDS011;64187;51.010;13.792;2023-12-07T06:57:19;17.83;;;10.10;;
75603;SDS011;64187;51.010;13.792;2023-12-07T07:02:20;19.98;;;10.40;;
75603;SDS011;64187;51.010;13.792;2023-12-07T07:07:19;19.05;;;10.60;;
75603;SDS011;64187;51.010;13.792;2023-12-07T07:12:17;25.98;;;12.95;;
75603;SDS011;64187;51.010;13.792;2023-12-07T07:17:16;18.90;;;10.70;;
75603;SDS011;64187;51.010;13.792;2023-12-07T07:22:16;21.50;;;11.20;;
75603;SDS011;64187;51.010;13.792;2023-12-07T07:27:14;19.30;;;10.88;;
75603;SDS011;64187;51.010;13.792;2023-12-07T07:32:13;22.33;;;11.25;;
75603;SDS011;64187;51.010;13.792;2023-12-07T07:37:12;17.92;;;10.27;;
75603;SDS011;64187;51.010;13.792;2023-12-07T07:42:11;16.85;;;10.50;;
75603;SDS011;64187;51.010;13.792;2023-12-07T07:47:10;17.50;;;10.02;;
75603;SDS011;64187;51.010;13.792;2023-12-07T07:52:09;17.27;;;10.63;;
75603;SDS011;64187;51.010;13.792;2023-12-07T07:57:08;18.95;;;11.65;;
75603;SDS011;64187;51.010;13.792;2023-12-07T08:02:07;20.05;;;10.50;;
75603;SDS011;64187;51.010;13.792;2023-12-07T08:07:05;26.13;;;12.70;;
75603;SDS011;64187;51.010;13.792;2023-12-07T08:12:06;20.30;;;11.90;;
75603;SDS011;64187;51.010;13.792;2023-12-07T08:17:07;22.08;;;10.65;;
75603;SDS011;64187;51.010;13.792;2023-12-07T08:22:06;23.42;;;12.23;;
75603;SDS011;64187;51.010;13.792;2023-12-07T08:27:05;21.58;;;11.57;;
75603;SDS011;64187;51.010;13.792;2023-12-07T08:32:04;24.10;;;12.13;;
75603;SDS011;64187;51.010;13.792;2023-12-07T08:37:03;21.10;;;11.43;;
75603;SDS011;64187;51.010;13.792;2023-12-07T08:42:02;29.77;;;14.00;;
75603;SDS011;64187;51.010;13.792;2023-12-07T08:47:01;20.33;;;11.45;;
75603;SDS011;64187;51.010;13.792;2023-12-07T08:52:00;30.95;;;13.75;;
75603;SDS011;64187;51.010;13.792;2023-12-07T08:57:19;24.05;;;13.02;;
75603;SDS011;64187;51.010;13.792;2023-12-07T09:02:18;18.98;;;10.60;;
75603;SDS011;64187;51.010;13.792;2023-12-07T09:07:39;21.20;;;10.95;;
75603;SDS011;64187;51.010;13.792;2023-12-07T09:12:38;18.20;;;10.18;;
75603;SDS011;64187;51.010;13.792;2023-12-07T09:17:38;22.65;;;10.18;;
75603;SDS011;64187;51.010;13.792;2023-12-07T09:22:44;16.67;;;9.73;;
75603;SDS011;64187;51.010;13.792;2023-12-07T09:27:45;18.42;;;10.05;;
75603;SDS011;64187;51.010;13.792;2023-12-07T09:32:43;18.20;;;9.68;;
75603;SDS011;64187;51.010;13.792;2023-12-07T09:37:43;17.63;;;9.80;;
75603;SDS011;64187;51.010;13.792;2023-12-07T09:42:43;17.98;;;9.93;;
75603;SDS011;64187;51.010;13.792;2023-12-07T09:47:43;15.65;;;8.75;;
75603;SDS011;64187;51.010;13.792;2023-12-07T09:52:50;18.83;;;10.40;;
75603;SDS011;64187;51.010;13.792;2023-12-07T09:58:05;17.95;;;9.82;;
75603;SDS011;64187;51.010;13.792;2023-12-07T10:03:08;17.38;;;9.35;;
75603;SDS011;64187;51.010;13.792;2023-12-07T10:08:25;16.20;;;9.32;;
75603;SDS011;64187;51.010;13.792;2023-12-07T10:13:35;17.50;;;9.85;;
75603;SDS011;64187;51.010;13.792;2023-12-07T10:18:35;20.23;;;9.20;;
75603;SDS011;64187;51.010;13.792;2023-12-07T10:23:37;17.52;;;9.48;;
75603;SDS011;64187;51.010;13.792;2023-12-07T10:28:36;17.63;;;9.40;;
75603;SDS011;64187;51.010;13.792;2023-12-07T10:33:35;15.82;;;8.18;;
75603;SDS011;64187;51.010;13.792;2023-12-07T10:38:35;16.70;;;9.70;;
75603;SDS011;64187;51.010;13.792;2023-12-07T10:43:36;17.33;;;9.55;;
75603;SDS011;64187;51.010;13.792;2023-12-07T10:48:37;17.90;;;9.10;;
75603;SDS011;64187;51.010;13.792;2023-12-07T10:53:40;17.27;;;8.82;;
75603;SDS011;64187;51.010;13.792;2023-12-07T10:58:42;16.70;;;9.50;;
75603;SDS011;64187;51.010;13.792;2023-12-07T11:03:43;18.13;;;10.55;;
75603;SDS011;64187;51.010;13.792;2023-12-07T11:08:50;21.95;;;10.40;;
75603;SDS011;64187;51.010;13.792;2023-12-07T11:14:02;19.55;;;10.00;;
75603;SDS011;64187;51.010;13.792;2023-12-07T11:19:02;19.10;;;9.65;;
75603;SDS011;64187;51.010;13.792;2023-12-07T11:24:06;19.48;;;10.82;;
75603;SDS011;64187;51.010;13.792;2023-12-07T11:29:06;20.23;;;10.07;;
75603;SDS011;64187;51.010;13.792;2023-12-07T11:34:08;18.92;;;10.55;;
75603;SDS011;64187;51.010;13.792;2023-12-07T11:44:24;17.42;;;9.77;;
75603;SDS011;64187;51.010;13.792;2023-12-07T11:49:32;18.92;;;10.25;;
75603;SDS011;64187;51.010;13.792;2023-12-07T11:54:34;19.95;;;10.57;;
75603;SDS011;64187;51.010;13.792;2023-12-07T11:59:33;18.90;;;10.32;;
75603;SDS011;64187;51.010;13.792;2023-12-07T12:04:32;17.30;;;9.52;;
75603;SDS011;64187;51.010;13.792;2023-12-07T12:09:31;20.05;;;10.75;;
75603;SDS011;64187;51.010;13.792;2023-12-07T12:14:30;19.10;;;9.95;;
75603;SDS011;64187;51.010;13.792;2023-12-07T12:19:30;21.23;;;10.02;;
75603;SDS011;64187;51.010;13.792;2023-12-07T12:24:33;17.05;;;9.77;;
75603;SDS011;64187;51.010;13.792;2023-12-07T12:29:36;18.27;;;9.15;;
75603;SDS011;64187;51.010;13.792;2023-12-07T12:34:35;18.20;;;9.27;;
75603;SDS011;64187;51.010;13.792;2023-12-07T12:39:34;19.13;;;10.20;;
75603;SDS011;64187;51.010;13.792;2023-12-07T12:44:33;17.95;;;9.30;;
75603;SDS011;64187;51.010;13.792;2023-12-07T12:49:36;19.33;;;10.57;;
75603;SDS011;64187;51.010;13.792;2023-12-07T12:54:38;20.45;;;10.02;;
75603;SDS011;64187;51.010;13.792;2023-12-07T12:59:37;18.45;;;10.32;;
75603;SDS011;64187;51.010;13.792;2023-12-07T13:04:37;19.92;;;10.30;;
75603;SDS011;64187;51.010;13.792;2023-12-07T13:09:40;19.42;;;10.23;;
75603;SDS011;64187;51.010;13.792;2023-12-07T13:14:38;19.25;;;10.75;;
75603;SDS011;64187;51.010;13.792;2023-12-07T13:19:46;19.02;;;10.52;;
75603;SDS011;64187;51.010;13.792;2023-12-07T13:24:47;20.20;;;10.73;;
75603;SDS011;64187;51.010;13.792;2023-12-07T13:29:46;20.90;;;10.93;;
75603;SDS011;64187;51.010;13.792;2023-12-07T13:34:45;19.73;;;11.57;;
75603;SDS011;64187;51.010;13.792;2023-12-07T13:39:45;22.02;;;11.18;;
75603;SDS011;64187;51.010;13.792;2023-12-07T13:44:43;21.35;;;11.38;;
75603;SDS011;64187;51.010;13.792;2023-12-07T13:49:43;21.15;;;10.75;;
75603;SDS011;64187;51.010;13.792;2023-12-07T13:54:42;20.50;;;11.05;;
75603;SDS011;64187;51.010;13.792;2023-12-07T13:59:51;20.20;;;11.10;;
75603;SDS011;64187;51.010;13.792;2023-12-07T14:04:51;20.92;;;10.93;;
75603;SDS011;64187;51.010;13.792;2023-12-07T14:09:50;22.90;;;12.07;;
75603;SDS011;64187;51.010;13.792;2023-12-07T14:14:56;19.35;;;11.02;;
75603;SDS011;64187;51.010;13.792;2023-12-07T14:19:56;18.45;;;11.18;;
75603;SDS011;64187;51.010;13.792;2023-12-07T14:25:15;21.40;;;12.57;;
75603;SDS011;64187;51.010;13.792;2023-12-07T14:30:20;24.55;;;12.48;;
75603;SDS011;64187;51.010;13.792;2023-12-07T14:35:19;23.13;;;12.25;;
75603;SDS011;64187;51.010;13.792;2023-12-07T14:40:20;20.98;;;11.82;;
75603;SDS011;64187;51.010;13.792;2023-12-07T14:45:19;20.88;;;10.75;;
75603;SDS011;64187;51.010;13.792;2023-12-07T14:50:19;22.25;;;11.95;;
75603;SDS011;64187;51.010;13.792;2023-12-07T14:55:18;18.02;;;10.95;;
75603;SDS011;64187;51.010;13.792;2023-12-07T15:00:17;20.63;;;10.52;;
75603;SDS011;64187;51.010;13.792;2023-12-07T15:05:16;22.00;;;11.43;;
75603;SDS011;64187;51.010;13.792;2023-12-07T15:10:15;21.70;;;12.43;;
75603;SDS011;64187;51.010;13.792;2023-12-07T15:15:14;26.40;;;13.20;;
75603;SDS011;64187;51.010;13.792;2023-12-07T15:20:13;21.20;;;11.50;;
75603;SDS011;64187;51.010;13.792;2023-12-07T15:25:12;22.50;;;11.93;;
75603;SDS011;64187;51.010;13.792;2023-12-07T15:30:12;22.65;;;11.73;;
75603;SDS011;64187;51.010;13.792;2023-12-07T15:35:11;23.33;;;12.48;;
75603;SDS011;64187;51.010;13.792;2023-12-07T15:40:10;23.40;;;13.00;;
75603;SDS011;64187;51.010;13.792;2023-12-07T15:45:09;21.50;;;11.48;;
75603;SDS011;64187;51.010;13.792;2023-12-07T15:50:08;25.42;;;12.43;;
75603;SDS011;64187;51.010;13.792;2023-12-07T15:55:09;24.98;;;12.70;;
75603;SDS011;64187;51.010;13.792;2023-12-07T16:00:08;27.05;;;13.73;;
75603;SDS011;64187;51.010;13.792;2023-12-07T16:05:09;25.80;;;13.40;;
75603;SDS011;64187;51.010;13.792;2023-12-07T16:10:08;25.52;;;14.95;;
75603;SDS011;64187;51.010;13.792;2023-12-07T16:15:07;23.48;;;13.18;;
75603;SDS011;64187;51.010;13.792;2023-12-07T16:20:07;26.05;;;14.00;;
75603;SDS011;64187;51.010;13.792;2023-12-07T16:25:08;28.15;;;13.90;;
75603;SDS011;64187;51.010;13.792;2023-12-07T16:30:07;31.75;;;14.45;;
75603;SDS011;64187;51.010;13.792;2023-12-07T16:35:11;27.23;;;14.10;;
75603;SDS011;64187;51.010;13.792;2023-12-07T16:40:10;25.77;;;14.40;;
75603;SDS011;64187;51.010;13.792;2023-12-07T16:45:10;26.45;;;13.57;;
75603;SDS011;64187;51.010;13.792;2023-12-07T16:50:10;25.08;;;14.43;;
75603;SDS011;64187;51.010;13.792;2023-12-07T16:55:09;25.20;;;13.65;;
75603;SDS011;64187;51.010;13.792;2023-12-07T17:00:08;29.77;;;14.48;;
75603;SDS011;64187;51.010;13.792;2023-12-07T17:05:09;26.70;;;14.35;;
75603;SDS011;64187;51.010;13.792;2023-12-07T17:10:08;31.17;;;15.35;;
75603;SDS011;64187;51.010;13.792;2023-12-07T17:15:07;26.02;;;15.23;;
75603;SDS011;64187;51.010;13.792;2023-12-07T17:20:06;29.20;;;16.25;;
75603;SDS011;64187;51.010;13.792;2023-12-07T17:25:06;37.70;;;18.33;;
75603;SDS011;64187;51.010;13.792;2023-12-07T17:30:19;32.60;;;18.08;;
75603;SDS011;64187;51.010;13.792;2023-12-07T17:35:19;37.85;;;18.80;;
75603;SDS011;64187;51.010;13.792;2023-12-07T17:40:18;37.15;;;18.60;;
75603;SDS011;64187;51.010;13.792;2023-12-07T17:45:17;29.83;;;16.63;;
75603;SDS011;64187;51.010;13.792;2023-12-07T17:50:20;33.63;;;17.15;;
75603;SDS011;64187;51.010;13.792;2023-12-07T17:55:19;34.20;;;18.23;;
75603;SDS011;64187;51.010;13.792;2023-12-07T18:00:17;32.97;;;16.65;;
75603;SDS011;64187;51.010;13.792;2023-12-07T18:05:17;35.63;;;19.10;;
75603;SDS011;64187;51.010;13.792;2023-12-07T18:10:16;31.10;;;18.20;;
75603;SDS011;64187;51.010;13.792;2023-12-07T18:15:18;37.55;;;17.88;;
75603;SDS011;64187;51.010;13.792;2023-12-07T18:20:17;32.28;;;16.65;;
75603;SDS011;64187;51.010;13.792;2023-12-07T18:25:16;32.53;;;16.90;;
75603;SDS011;64187;51.010;13.792;2023-12-07T18:30:15;34.05;;;16.67;;
75603;SDS011;64187;51.010;13.792;2023-12-07T18:35:14;29.80;;;14.82;;
75603;SDS011;64187;51.010;13.792;2023-12-07T18:40:13;28.27;;;14.73;;
75603;SDS011;64187;51.010;13.792;2023-12-07T18:45:12;35.55;;;20.05;;
75603;SDS011;64187;51.010;13.792;2023-12-07T18:50:11;40.50;;;21.25;;
75603;SDS011;64187;51.010;13.792;2023-12-07T18:55:12;26.52;;;14.82;;
75603;SDS011;64187;51.010;13.792;2023-12-07T19:00:14;31.02;;;15.73;;
75603;SDS011;64187;51.010;13.792;2023-12-07T19:05:16;32.45;;;17.40;;
75603;SDS011;64187;51.010;13.792;2023-12-07T19:10:15;34.10;;;15.38;;
75603;SDS011;64187;51.010;13.792;2023-12-07T19:15:14;29.55;;;16.15;;
75603;SDS011;64187;51.010;13.792;2023-12-07T19:20:13;34.40;;;16.40;;
75603;SDS011;64187;51.010;13.792;2023-12-07T19:25:13;30.85;;;15.82;;
75603;SDS011;64187;51.010;13.792;2023-12-07T19:30:13;28.90;;;15.55;;
75603;SDS011;64187;51.010;13.792;2023-12-07T19:35:27;32.83;;;17.10;;
75603;SDS011;64187;51.010;13.792;2023-12-07T19:40:26;32.90;;;17.25;;
75603;SDS011;64187;51.010;13.792;2023-12-07T19:45:24;32.67;;;17.40;;
75603;SDS011;64187;51.010;13.792;2023-12-07T19:50:23;29.85;;;16.30;;
75603;SDS011;64187;51.010;13.792;2023-12-07T19:55:22;31.38;;;17.27;;
75603;SDS011;64187;51.010;13.792;2023-12-07T20:00:21;31.83;;;16.60;;
75603;SDS011;64187;51.010;13.792;2023-12-07T20:05:20;36.55;;;18.05;;
75603;SDS011;64187;51.010;13.792;2023-12-07T20:10:21;34.47;;;17.92;;
75603;SDS011;64187;51.010;13.792;2023-12-07T20:15:20;35.95;;;17.15;;
75603;SDS011;64187;51.010;13.792;2023-12-07T20:20:19;34.83;;;16.30;;
75603;SDS011;64187;51.010;13.792;2023-12-07T20:25:18;56.90;;;20.63;;
75603;SDS011;64187;51.010;13.792;2023-12-07T20:30:18;69.15;;;22.75;;
75603;SDS011;64187;51.010;13.792;2023-12-07T20:35:17;33.92;;;16.27;;
75603;SDS011;64187;51.010;13.792;2023-12-07T20:40:16;32.88;;;16.05;;
75603;SDS011;64187;51.010;13.792;2023-12-07T20:45:15;33.78;;;16.25;;
75603;SDS011;64187;51.010;13.792;2023-12-07T20:50:14;37.70;;;17.65;;
75603;SDS011;64187;51.010;13.792;2023-12-07T20:55:13;32.20;;;15.82;;
75603;SDS011;64187;51.010;13.792;2023-12-07T21:00:12;28.05;;;14.52;;
75603;SDS011;64187;51.010;13.792;2023-12-07T21:05:11;31.38;;;16.27;;
75603;SDS011;64187;51.010;13.792;2023-12-07T21:10:10;30.80;;;15.63;;
75603;SDS011;64187;51.010;13.792;2023-12-07T21:15:09;31.85;;;15.73;;
75603;SDS011;64187;51.010;13.792;2023-12-07T21:20:08;32.20;;;15.15;;
75603;SDS011;64187;51.010;13.792;2023-12-07T21:25:07;31.13;;;15.43;;
75603;SDS011;64187;51.010;13.792;2023-12-07T21:30:06;30.17;;;15.40;;
75603;SDS011;64187;51.010;13.792;2023-12-07T21:35:07;28.25;;;15.30;;
75603;SDS011;64187;51.010;13.792;2023-12-07T21:40:07;31.80;;;15.35;;
75603;SDS011;64187;51.010;13.792;2023-12-07T21:45:06;30.50;;;15.02;;
75603;SDS011;64187;51.010;13.792;2023-12-07T21:50:06;25.65;;;13.35;;
75603;SDS011;64187;51.010;13.792;2023-12-07T21:55:05;27.98;;;14.48;;
75603;SDS011;64187;51.010;13.792;2023-12-07T22:00:04;27.77;;;14.18;;
75603;SDS011;64187;51.010;13.792;2023-12-07T22:05:09;27.65;;;14.50;;
75603;SDS011;64187;51.010;13.792;2023-12-07T22:10:08;31.40;;;14.85;;
75603;SDS011;64187;51.010;13.792;2023-12-07T22:15:23;28.80;;;14.30;;
75603;SDS011;64187;51.010;13.792;2023-12-07T22:20:26;30.10;;;14.50;;
75603;SDS011;64187;51.010;13.792;2023-12-07T22:25:26;29.70;;;14.27;;
75603;SDS011;64187;51.010;13.792;2023-12-07T22:30:25;30.10;;;14.68;;
75603;SDS011;64187;51.010;13.792;2023-12-07T22:35:23;31.45;;;14.77;;
75603;SDS011;64187;51.010;13.792;2023-12-07T22:40:22;27.90;;;13.98;;
75603;SDS011;64187;51.010;13.792;2023-12-07T22:45:21;29.83;;;13.80;;
75603;SDS011;64187;51.010;13.792;2023-12-07T22:50:20;32.42;;;14.50;;
75603;SDS011;64187;51.010;13.792;2023-12-07T22:55:19;28.85;;;14.48;;
75603;SDS011;64187;51.010;13.792;2023-12-07T23:00:18;26.83;;;15.05;;
75603;SDS011;64187;51.010;13.792;2023-12-07T23:05:18;29.27;;;13.60;;
75603;SDS011;64187;51.010;13.792;2023-12-07T23:10:17;32.70;;;14.45;;
75603;SDS011;64187;51.010;13.792;2023-12-07T23:15:16;29.13;;;14.25;;
75603;SDS011;64187;51.010;13.792;2023-12-07T23:20:15;31.13;;;14.30;;
75603;SDS011;64187;51.010;13.792;2023-12-07T23:25:14;31.17;;;15.32;;
75603;SDS011;64187;51.010;13.792;2023-12-07T23:30:13;30.85;;;15.18;;
75603;SDS011;64187;51.010;13.792;2023-12-07T23:35:13;31.88;;;15.13;;
75603;SDS011;64187;51.010;13.792;2023-12-07T23:40:12;29.85;;;15.27;;
75603;SDS011;64187;51.010;13.792;2023-12-07T23:45:11;33.80;;;16.50;;
75603;SDS011;64187;51.010;13.792;2023-12-07T23:50:10;37.55;;;16.02;;
75603;SDS011;64187;51.010;13.792;2023-12-07T23:55:08;41.15;;;18.23;;
